sensor_id;sensor_type;location;lat;lon;timestamp;temperature;humidity
13521;DHT22;6832;51.186;3.236;2023-07-29T00:01:19;27.30;56.60
13521;DHT22;6832;51.186;3.236;2023-07-29T00:03:46;27.30;56.60
13521;DHT22;6832;51.186;3.236;2023-07-29T00:06:13;27.30;56.60
13521;DHT22;6832;51.186;3.236;2023-07-29T00:08:39;27.30;56.60
13521;DHT22;6832;51.186;3.236;2023-07-29T00:11:06;27.30;56.60
13521;DHT22;6832;51.186;3.236;2023-07-29T00:13:35;27.30;56.60
13521;DHT22;6832;51.186;3.236;2023-07-29T00:16:01;27.30;56.60
13521;DHT22;6832;51.186;3.236;2023-07-29T00:18:28;27.30;56.60
13521;DHT22;6832;51.186;3.236;2023-07-29T00:20:55;27.30;56.60
13521;DHT22;6832;51.186;3.236;2023-07-29T00:23:23;27.30;56.60
13521;DHT22;6832;51.186;3.236;2023-07-29T00:25:50;27.40;56.70
13521;DHT22;6832;51.186;3.236;2023-07-29T00:28:17;27.30;56.60
13521;DHT22;6832;51.186;3.236;2023-07-29T00:30:45;27.30;56.60
13521;DHT22;6832;51.186;3.236;2023-07-29T00:33:11;27.30;56.50
13521;DHT22;6832;51.186;3.236;2023-07-29T00:35:38;27.30;56.60
13521;DHT22;6832;51.186;3.236;2023-07-29T00:38:05;27.30;56.50
13521;DHT22;6832;51.186;3.236;2023-07-29T00:40:35;27.30;56.60
13521;DHT22;6832;51.186;3.236;2023-07-29T00:43:02;27.30;56.50
13521;DHT22;6832;51.186;3.236;2023-07-29T00:45:29;27.30;56.50
13521;DHT22;6832;51.186;3.236;2023-07-29T00:47:58;27.30;56.50
13521;DHT22;6832;51.186;3.236;2023-07-29T00:50:25;27.30;56.50
13521;DHT22;6832;51.186;3.236;2023-07-29T00:52:53;27.30;56.50
13521;DHT22;6832;51.186;3.236;2023-07-29T00:55:20;27.30;56.50
13521;DHT22;6832;51.186;3.236;2023-07-29T00:57:47;27.20;56.40
13521;DHT22;6832;51.186;3.236;2023-07-29T01:00:17;27.30;56.50
13521;DHT22;6832;51.186;3.236;2023-07-29T01:02:44;27.20;56.40
13521;DHT22;6832;51.186;3.236;2023-07-29T01:05:14;27.20;56.40
13521;DHT22;6832;51.186;3.236;2023-07-29T01:07:47;27.20;56.40
13521;DHT22;6832;51.186;3.236;2023-07-29T01:10:23;27.20;56.40
13521;DHT22;6832;51.186;3.236;2023-07-29T01:12:56;27.20;56.40
13521;DHT22;6832;51.186;3.236;2023-07-29T01:15:28;27.20;57.00
13521;DHT22;6832;51.186;3.236;2023-07-29T01:18:04;27.20;56.40
13521;DHT22;6832;51.186;3.236;2023-07-29T01:20:34;27.20;56.40
13521;DHT22;6832;51.186;3.236;2023-07-29T01:23:02;27.20;56.40
13521;DHT22;6832;51.186;3.236;2023-07-29T01:25:30;27.20;56.40
13521;DHT22;6832;51.186;3.236;2023-07-29T01:27:57;27.20;56.40
13521;DHT22;6832;51.186;3.236;2023-07-29T01:30:30;27.20;56.50
13521;DHT22;6832;51.186;3.236;2023-07-29T01:33:03;27.10;56.40
13521;DHT22;6832;51.186;3.236;2023-07-29T01:35:33;27.10;56.40
13521;DHT22;6832;51.186;3.236;2023-07-29T01:38:05;27.10;56.40
13521;DHT22;6832;51.186;3.236;2023-07-29T01:40:35;27.10;56.40
13521;DHT22;6832;51.186;3.236;2023-07-29T01:43:02;27.10;56.40
13521;DHT22;6832;51.186;3.236;2023-07-29T01:45:29;27.10;56.40
13521;DHT22;6832;51.186;3.236;2023-07-29T01:47:57;27.10;56.40
13521;DHT22;6832;51.186;3.236;2023-07-29T01:50:24;27.10;56.40
13521;DHT22;6832;51.186;3.236;2023-07-29T01:52:51;27.10;56.40
13521;DHT22;6832;51.186;3.236;2023-07-29T01:55:21;27.10;56.40
13521;DHT22;6832;51.186;3.236;2023-07-29T01:57:49;27.10;56.40
13521;DHT22;6832;51.186;3.236;2023-07-29T02:00:17;27.10;56.40
13521;DHT22;6832;51.186;3.236;2023-07-29T02:02:44;27.10;56.40
13521;DHT22;6832;51.186;3.236;2023-07-29T02:05:12;27.10;56.40
13521;DHT22;6832;51.186;3.236;2023-07-29T02:07:38;27.10;56.40
13521;DHT22;6832;51.186;3.236;2023-07-29T02:10:06;27.00;56.40
13521;DHT22;6832;51.186;3.236;2023-07-29T02:12:33;27.00;56.40
13521;DHT22;6832;51.186;3.236;2023-07-29T02:15:02;27.00;56.40
13521;DHT22;6832;51.186;3.236;2023-07-29T02:17:28;27.00;56.40
13521;DHT22;6832;51.186;3.236;2023-07-29T02:19:55;27.00;56.40
13521;DHT22;6832;51.186;3.236;2023-07-29T02:22:22;27.00;56.40
13521;DHT22;6832;51.186;3.236;2023-07-29T02:24:49;27.00;56.40
13521;DHT22;6832;51.186;3.236;2023-07-29T02:27:16;27.00;56.40
13521;DHT22;6832;51.186;3.236;2023-07-29T02:29:42;27.00;56.40
13521;DHT22;6832;51.186;3.236;2023-07-29T02:32:10;27.00;56.70
13521;DHT22;6832;51.186;3.236;2023-07-29T02:34:37;27.00;56.40
13521;DHT22;6832;51.186;3.236;2023-07-29T02:37:04;27.00;56.40
13521;DHT22;6832;51.186;3.236;2023-07-29T02:39:31;27.00;56.50
13521;DHT22;6832;51.186;3.236;2023-07-29T02:41:58;27.00;56.40
13521;DHT22;6832;51.186;3.236;2023-07-29T02:44:25;27.00;56.40
13521;DHT22;6832;51.186;3.236;2023-07-29T02:46:51;27.00;56.50
13521;DHT22;6832;51.186;3.236;2023-07-29T02:49:21;26.90;56.40
13521;DHT22;6832;51.186;3.236;2023-07-29T02:51:48;26.90;56.40
13521;DHT22;6832;51.186;3.236;2023-07-29T02:54:15;27.00;56.40
13521;DHT22;6832;51.186;3.236;2023-07-29T02:56:42;26.90;56.40
13521;DHT22;6832;51.186;3.236;2023-07-29T02:59:09;26.90;56.40
13521;DHT22;6832;51.186;3.236;2023-07-29T03:01:36;26.90;56.40
13521;DHT22;6832;51.186;3.236;2023-07-29T03:04:03;26.90;56.40
13521;DHT22;6832;51.186;3.236;2023-07-29T03:06:31;26.90;56.40
13521;DHT22;6832;51.186;3.236;2023-07-29T03:08:58;26.90;56.40
13521;DHT22;6832;51.186;3.236;2023-07-29T03:11:25;26.90;56.40
13521;DHT22;6832;51.186;3.236;2023-07-29T03:13:52;26.90;56.40
13521;DHT22;6832;51.186;3.236;2023-07-29T03:16:19;26.90;56.40
13521;DHT22;6832;51.186;3.236;2023-07-29T03:18:46;26.90;56.40
13521;DHT22;6832;51.186;3.236;2023-07-29T03:21:14;26.90;56.40
13521;DHT22;6832;51.186;3.236;2023-07-29T03:23:43;26.80;56.30
13521;DHT22;6832;51.186;3.236;2023-07-29T03:26:09;26.90;56.40
13521;DHT22;6832;51.186;3.236;2023-07-29T03:28:38;26.90;56.40
13521;DHT22;6832;51.186;3.236;2023-07-29T03:31:06;26.90;56.40
13521;DHT22;6832;51.186;3.236;2023-07-29T03:33:32;26.90;56.40
13521;DHT22;6832;51.186;3.236;2023-07-29T03:35:59;26.80;56.30
13521;DHT22;6832;51.186;3.236;2023-07-29T03:38:26;26.90;56.40
13521;DHT22;6832;51.186;3.236;2023-07-29T03:40:55;26.80;56.30
13521;DHT22;6832;51.186;3.236;2023-07-29T03:43:21;26.90;56.40
13521;DHT22;6832;51.186;3.236;2023-07-29T03:45:48;26.90;56.40
13521;DHT22;6832;51.186;3.236;2023-07-29T03:48:15;26.80;56.30
13521;DHT22;6832;51.186;3.236;2023-07-29T03:50:42;26.80;56.50
13521;DHT22;6832;51.186;3.236;2023-07-29T03:53:09;26.80;56.30
13521;DHT22;6832;51.186;3.236;2023-07-29T03:55:36;26.80;56.30
13521;DHT22;6832;51.186;3.236;2023-07-29T03:58:04;26.80;56.30
13521;DHT22;6832;51.186;3.236;2023-07-29T04:00:31;26.80;56.30
13521;DHT22;6832;51.186;3.236;2023-07-29T04:02:58;26.80;56.30
13521;DHT22;6832;51.186;3.236;2023-07-29T04:05:25;26.80;56.30
13521;DHT22;6832;51.186;3.236;2023-07-29T04:07:53;26.80;56.30
13521;DHT22;6832;51.186;3.236;2023-07-29T04:10:20;26.80;56.30
13521;DHT22;6832;51.186;3.236;2023-07-29T04:12:47;26.80;56.30
13521;DHT22;6832;51.186;3.236;2023-07-29T04:15:15;26.80;56.30
13521;DHT22;6832;51.186;3.236;2023-07-29T04:17:42;26.80;56.30
13521;DHT22;6832;51.186;3.236;2023-07-29T04:20:10;26.80;56.30
13521;DHT22;6832;51.186;3.236;2023-07-29T04:22:37;26.80;56.30
13521;DHT22;6832;51.186;3.236;2023-07-29T04:25:05;26.80;56.30
13521;DHT22;6832;51.186;3.236;2023-07-29T04:27:32;26.80;56.30
13521;DHT22;6832;51.186;3.236;2023-07-29T04:29:59;26.80;56.30
13521;DHT22;6832;51.186;3.236;2023-07-29T04:32:27;26.80;56.30
13521;DHT22;6832;51.186;3.236;2023-07-29T04:34:54;26.80;56.30
13521;DHT22;6832;51.186;3.236;2023-07-29T04:37:21;26.80;56.30
13521;DHT22;6832;51.186;3.236;2023-07-29T04:39:48;26.80;56.30
13521;DHT22;6832;51.186;3.236;2023-07-29T04:42:15;26.80;56.30
13521;DHT22;6832;51.186;3.236;2023-07-29T04:44:41;26.80;56.30
13521;DHT22;6832;51.186;3.236;2023-07-29T04:47:09;26.70;56.30
13521;DHT22;6832;51.186;3.236;2023-07-29T04:49:37;26.60;56.60
13521;DHT22;6832;51.186;3.236;2023-07-29T04:52:05;26.60;56.60
13521;DHT22;6832;51.186;3.236;2023-07-29T04:54:31;26.70;56.60
13521;DHT22;6832;51.186;3.236;2023-07-29T04:57:01;26.70;56.40
13521;DHT22;6832;51.186;3.236;2023-07-29T04:59:28;26.70;56.40
13521;DHT22;6832;51.186;3.236;2023-07-29T05:01:55;26.80;56.30
13521;DHT22;6832;51.186;3.236;2023-07-29T05:04:22;26.70;56.20
13521;DHT22;6832;51.186;3.236;2023-07-29T05:06:51;26.80;56.30
13521;DHT22;6832;51.186;3.236;2023-07-29T05:09:21;26.70;56.20
13521;DHT22;6832;51.186;3.236;2023-07-29T05:11:48;26.80;56.30
13521;DHT22;6832;51.186;3.236;2023-07-29T05:14:16;26.80;56.30
13521;DHT22;6832;51.186;3.236;2023-07-29T05:16:43;26.70;56.20
13521;DHT22;6832;51.186;3.236;2023-07-29T05:19:10;26.80;56.30
13521;DHT22;6832;51.186;3.236;2023-07-29T05:21:38;26.80;56.30
13521;DHT22;6832;51.186;3.236;2023-07-29T05:24:06;26.70;56.30
13521;DHT22;6832;51.186;3.236;2023-07-29T05:26:33;26.80;56.30
13521;DHT22;6832;51.186;3.236;2023-07-29T05:29:00;26.80;56.30
13521;DHT22;6832;51.186;3.236;2023-07-29T05:31:27;26.80;56.30
13521;DHT22;6832;51.186;3.236;2023-07-29T05:33:54;26.80;56.30
13521;DHT22;6832;51.186;3.236;2023-07-29T05:36:21;26.70;56.20
13521;DHT22;6832;51.186;3.236;2023-07-29T05:38:48;26.80;56.30
13521;DHT22;6832;51.186;3.236;2023-07-29T05:41:16;26.80;56.30
13521;DHT22;6832;51.186;3.236;2023-07-29T05:43:43;26.80;56.30
13521;DHT22;6832;51.186;3.236;2023-07-29T05:46:10;26.70;56.30
13521;DHT22;6832;51.186;3.236;2023-07-29T05:48:37;26.80;56.40
13521;DHT22;6832;51.186;3.236;2023-07-29T05:51:04;26.70;56.30
13521;DHT22;6832;51.186;3.236;2023-07-29T05:53:31;26.80;56.30
13521;DHT22;6832;51.186;3.236;2023-07-29T05:55:58;26.80;56.30
13521;DHT22;6832;51.186;3.236;2023-07-29T05:58:26;26.80;56.40
13521;DHT22;6832;51.186;3.236;2023-07-29T06:00:53;26.80;56.30
13521;DHT22;6832;51.186;3.236;2023-07-29T06:03:20;26.80;56.40
13521;DHT22;6832;51.186;3.236;2023-07-29T06:05:48;26.80;56.40
13521;DHT22;6832;51.186;3.236;2023-07-29T06:08:15;26.80;57.00
13521;DHT22;6832;51.186;3.236;2023-07-29T06:10:42;26.80;56.30
13521;DHT22;6832;51.186;3.236;2023-07-29T06:13:09;26.80;56.40
13521;DHT22;6832;51.186;3.236;2023-07-29T06:15:37;26.80;56.40
13521;DHT22;6832;51.186;3.236;2023-07-29T06:18:04;26.80;56.40
13521;DHT22;6832;51.186;3.236;2023-07-29T06:20:31;26.80;56.30
13521;DHT22;6832;51.186;3.236;2023-07-29T06:22:58;26.80;56.30
13521;DHT22;6832;51.186;3.236;2023-07-29T06:25:24;26.80;56.30
13521;DHT22;6832;51.186;3.236;2023-07-29T06:27:51;26.80;56.30
13521;DHT22;6832;51.186;3.236;2023-07-29T06:30:18;26.80;56.30
13521;DHT22;6832;51.186;3.236;2023-07-29T06:32:46;26.80;56.30
13521;DHT22;6832;51.186;3.236;2023-07-29T06:35:13;26.80;56.30
13521;DHT22;6832;51.186;3.236;2023-07-29T06:37:40;26.80;56.40
13521;DHT22;6832;51.186;3.236;2023-07-29T06:40:08;26.80;56.30
13521;DHT22;6832;51.186;3.236;2023-07-29T06:42:35;26.80;56.30
13521;DHT22;6832;51.186;3.236;2023-07-29T06:45:03;26.80;56.30
13521;DHT22;6832;51.186;3.236;2023-07-29T06:47:30;26.80;56.30
13521;DHT22;6832;51.186;3.236;2023-07-29T06:49:58;26.80;56.30
13521;DHT22;6832;51.186;3.236;2023-07-29T06:52:26;26.80;56.30
13521;DHT22;6832;51.186;3.236;2023-07-29T06:54:52;26.80;56.30
13521;DHT22;6832;51.186;3.236;2023-07-29T06:57:19;26.80;56.30
13521;DHT22;6832;51.186;3.236;2023-07-29T06:59:46;26.80;56.30
13521;DHT22;6832;51.186;3.236;2023-07-29T07:02:13;26.80;56.30
13521;DHT22;6832;51.186;3.236;2023-07-29T07:04:40;26.80;56.30
13521;DHT22;6832;51.186;3.236;2023-07-29T07:07:09;26.80;56.30
13521;DHT22;6832;51.186;3.236;2023-07-29T07:09:36;26.80;56.30
13521;DHT22;6832;51.186;3.236;2023-07-29T07:12:03;26.80;56.40
13521;DHT22;6832;51.186;3.236;2023-07-29T07:14:30;26.80;56.30
13521;DHT22;6832;51.186;3.236;2023-07-29T07:16:57;26.80;56.30
13521;DHT22;6832;51.186;3.236;2023-07-29T07:19:24;26.80;56.40
13521;DHT22;6832;51.186;3.236;2023-07-29T07:21:50;26.80;56.40
13521;DHT22;6832;51.186;3.236;2023-07-29T07:24:19;26.80;56.50
13521;DHT22;6832;51.186;3.236;2023-07-29T07:26:45;26.80;56.50
13521;DHT22;6832;51.186;3.236;2023-07-29T07:29:12;26.80;56.50
13521;DHT22;6832;51.186;3.236;2023-07-29T07:31:39;26.80;56.50
13521;DHT22;6832;51.186;3.236;2023-07-29T07:34:06;26.80;56.50
13521;DHT22;6832;51.186;3.236;2023-07-29T07:36:33;26.80;56.50
13521;DHT22;6832;51.186;3.236;2023-07-29T07:39:00;26.90;56.60
13521;DHT22;6832;51.186;3.236;2023-07-29T07:41:29;26.90;56.60
13521;DHT22;6832;51.186;3.236;2023-07-29T07:43:56;26.90;56.60
13521;DHT22;6832;51.186;3.236;2023-07-29T07:46:22;26.90;56.50
13521;DHT22;6832;51.186;3.236;2023-07-29T07:48:49;26.90;56.50
13521;DHT22;6832;51.186;3.236;2023-07-29T07:51:16;26.90;56.50
13521;DHT22;6832;51.186;3.236;2023-07-29T07:53:43;26.90;56.50
13521;DHT22;6832;51.186;3.236;2023-07-29T07:56:10;26.90;56.50
13521;DHT22;6832;51.186;3.236;2023-07-29T07:58:38;26.90;56.50
13521;DHT22;6832;51.186;3.236;2023-07-29T08:01:06;26.90;56.50
13521;DHT22;6832;51.186;3.236;2023-07-29T08:03:33;27.00;56.50
13521;DHT22;6832;51.186;3.236;2023-07-29T08:06:01;27.00;56.50
13521;DHT22;6832;51.186;3.236;2023-07-29T08:08:28;27.00;56.50
13521;DHT22;6832;51.186;3.236;2023-07-29T08:10:56;27.00;56.50
13521;DHT22;6832;51.186;3.236;2023-07-29T08:13:24;27.00;56.50
13521;DHT22;6832;51.186;3.236;2023-07-29T08:15:53;27.00;56.50
13521;DHT22;6832;51.186;3.236;2023-07-29T08:18:20;27.00;56.50
13521;DHT22;6832;51.186;3.236;2023-07-29T08:20:53;27.00;56.50
13521;DHT22;6832;51.186;3.236;2023-07-29T08:23:24;27.00;56.60
13521;DHT22;6832;51.186;3.236;2023-07-29T08:25:55;27.10;56.60
13521;DHT22;6832;51.186;3.236;2023-07-29T08:28:27;27.10;56.70
13521;DHT22;6832;51.186;3.236;2023-07-29T08:30:55;27.10;56.60
13521;DHT22;6832;51.186;3.236;2023-07-29T08:33:22;27.10;56.50
13521;DHT22;6832;51.186;3.236;2023-07-29T08:35:49;27.10;56.50
13521;DHT22;6832;51.186;3.236;2023-07-29T08:38:16;27.20;56.50
13521;DHT22;6832;51.186;3.236;2023-07-29T08:40:45;27.10;56.50
13521;DHT22;6832;51.186;3.236;2023-07-29T08:43:14;27.20;56.50
13521;DHT22;6832;51.186;3.236;2023-07-29T08:45:44;27.20;56.50
13521;DHT22;6832;51.186;3.236;2023-07-29T08:48:13;27.20;56.50
13521;DHT22;6832;51.186;3.236;2023-07-29T08:50:44;27.20;56.50
13521;DHT22;6832;51.186;3.236;2023-07-29T08:53:11;27.20;56.50
13521;DHT22;6832;51.186;3.236;2023-07-29T08:55:39;27.20;56.50
13521;DHT22;6832;51.186;3.236;2023-07-29T08:58:06;27.20;56.50
13521;DHT22;6832;51.186;3.236;2023-07-29T09:00:34;27.20;56.60
13521;DHT22;6832;51.186;3.236;2023-07-29T09:03:01;27.20;56.60
13521;DHT22;6832;51.186;3.236;2023-07-29T09:05:34;27.20;56.50
13521;DHT22;6832;51.186;3.236;2023-07-29T09:08:02;27.20;56.50
13521;DHT22;6832;51.186;3.236;2023-07-29T09:10:35;27.20;56.50
13521;DHT22;6832;51.186;3.236;2023-07-29T09:13:02;27.20;56.50
13521;DHT22;6832;51.186;3.236;2023-07-29T09:15:30;27.10;56.50
13521;DHT22;6832;51.186;3.236;2023-07-29T09:17:57;27.10;56.50
13521;DHT22;6832;51.186;3.236;2023-07-29T09:20:25;27.10;56.50
13521;DHT22;6832;51.186;3.236;2023-07-29T09:22:54;27.10;56.50
13521;DHT22;6832;51.186;3.236;2023-07-29T09:25:25;27.10;56.50
13521;DHT22;6832;51.186;3.236;2023-07-29T09:27:52;27.10;56.50
13521;DHT22;6832;51.186;3.236;2023-07-29T09:30:19;27.10;56.50
13521;DHT22;6832;51.186;3.236;2023-07-29T09:32:46;27.10;56.50
13521;DHT22;6832;51.186;3.236;2023-07-29T09:35:13;27.10;56.50
13521;DHT22;6832;51.186;3.236;2023-07-29T09:37:40;27.10;56.60
13521;DHT22;6832;51.186;3.236;2023-07-29T09:40:14;27.10;56.70
13521;DHT22;6832;51.186;3.236;2023-07-29T09:42:47;27.00;56.60
13521;DHT22;6832;51.186;3.236;2023-07-29T09:45:19;27.00;56.70
13521;DHT22;6832;51.186;3.236;2023-07-29T09:47:47;27.10;56.70
13521;DHT22;6832;51.186;3.236;2023-07-29T09:50:13;27.00;56.70
13521;DHT22;6832;51.186;3.236;2023-07-29T09:52:41;27.00;56.70
13521;DHT22;6832;51.186;3.236;2023-07-29T09:55:12;27.00;56.80
13521;DHT22;6832;51.186;3.236;2023-07-29T09:57:39;27.00;56.80
13521;DHT22;6832;51.186;3.236;2023-07-29T10:00:07;27.00;56.80
13521;DHT22;6832;51.186;3.236;2023-07-29T10:02:37;27.00;56.80
13521;DHT22;6832;51.186;3.236;2023-07-29T10:05:06;27.00;56.80
13521;DHT22;6832;51.186;3.236;2023-07-29T10:07:33;27.00;56.90
13521;DHT22;6832;51.186;3.236;2023-07-29T10:10:02;27.10;57.00
13521;DHT22;6832;51.186;3.236;2023-07-29T10:12:30;27.00;57.00
13521;DHT22;6832;51.186;3.236;2023-07-29T10:14:59;27.00;57.00
13521;DHT22;6832;51.186;3.236;2023-07-29T10:17:26;27.00;57.00
13521;DHT22;6832;51.186;3.236;2023-07-29T10:19:54;27.00;57.10
13521;DHT22;6832;51.186;3.236;2023-07-29T10:22:25;27.10;57.20
13521;DHT22;6832;51.186;3.236;2023-07-29T10:24:54;27.10;57.20
13521;DHT22;6832;51.186;3.236;2023-07-29T10:27:25;27.10;57.20
13521;DHT22;6832;51.186;3.236;2023-07-29T10:29:55;27.10;57.20
13521;DHT22;6832;51.186;3.236;2023-07-29T10:32:25;27.10;57.20
13521;DHT22;6832;51.186;3.236;2023-07-29T10:34:52;27.20;57.30
13521;DHT22;6832;51.186;3.236;2023-07-29T10:37:19;27.20;57.20
13521;DHT22;6832;51.186;3.236;2023-07-29T10:39:54;27.20;57.20
13521;DHT22;6832;51.186;3.236;2023-07-29T10:42:21;27.20;57.30
13521;DHT22;6832;51.186;3.236;2023-07-29T10:44:49;27.20;57.30
13521;DHT22;6832;51.186;3.236;2023-07-29T10:47:20;27.20;57.30
13521;DHT22;6832;51.186;3.236;2023-07-29T10:49:49;27.30;57.40
13521;DHT22;6832;51.186;3.236;2023-07-29T10:52:28;27.30;57.50
13521;DHT22;6832;51.186;3.236;2023-07-29T10:54:56;27.30;57.60
13521;DHT22;6832;51.186;3.236;2023-07-29T10:57:31;27.30;57.50
13521;DHT22;6832;51.186;3.236;2023-07-29T10:59:59;27.40;57.80
13521;DHT22;6832;51.186;3.236;2023-07-29T11:02:30;27.40;57.70
13521;DHT22;6832;51.186;3.236;2023-07-29T11:04:58;27.50;57.90
13521;DHT22;6832;51.186;3.236;2023-07-29T11:07:26;27.60;57.90
13521;DHT22;6832;51.186;3.236;2023-07-29T11:10:03;27.60;57.90
13521;DHT22;6832;51.186;3.236;2023-07-29T11:12:41;27.70;58.00
13521;DHT22;6832;51.186;3.236;2023-07-29T11:15:19;27.80;58.20
13521;DHT22;6832;51.186;3.236;2023-07-29T11:17:49;27.90;58.20
13521;DHT22;6832;51.186;3.236;2023-07-29T11:20:18;28.00;58.20
13521;DHT22;6832;51.186;3.236;2023-07-29T11:22:45;28.20;58.20
13521;DHT22;6832;51.186;3.236;2023-07-29T11:25:13;28.30;58.30
13521;DHT22;6832;51.186;3.236;2023-07-29T11:27:41;28.50;58.50
13521;DHT22;6832;51.186;3.236;2023-07-29T11:30:09;28.70;58.40
13521;DHT22;6832;51.186;3.236;2023-07-29T11:32:38;28.90;58.40
13521;DHT22;6832;51.186;3.236;2023-07-29T11:35:07;29.10;58.30
13521;DHT22;6832;51.186;3.236;2023-07-29T11:37:36;29.40;58.30
13521;DHT22;6832;51.186;3.236;2023-07-29T11:40:03;29.60;58.20
13521;DHT22;6832;51.186;3.236;2023-07-29T11:42:32;29.70;58.20
13521;DHT22;6832;51.186;3.236;2023-07-29T11:44:59;30.00;58.00
13521;DHT22;6832;51.186;3.236;2023-07-29T11:47:27;30.20;57.60
13521;DHT22;6832;51.186;3.236;2023-07-29T11:49:54;30.30;57.40
13521;DHT22;6832;51.186;3.236;2023-07-29T11:52:22;30.50;57.30
13521;DHT22;6832;51.186;3.236;2023-07-29T11:54:49;30.70;57.10
13521;DHT22;6832;51.186;3.236;2023-07-29T11:57:16;30.80;56.80
13521;DHT22;6832;51.186;3.236;2023-07-29T11:59:45;30.90;56.50
13521;DHT22;6832;51.186;3.236;2023-07-29T12:02:14;31.10;56.10
13521;DHT22;6832;51.186;3.236;2023-07-29T12:04:43;31.20;55.80
13521;DHT22;6832;51.186;3.236;2023-07-29T12:07:13;31.20;55.50
13521;DHT22;6832;51.186;3.236;2023-07-29T12:09:42;31.30;55.30
13521;DHT22;6832;51.186;3.236;2023-07-29T12:12:10;31.30;55.20
13521;DHT22;6832;51.186;3.236;2023-07-29T12:14:36;31.20;55.20
13521;DHT22;6832;51.186;3.236;2023-07-29T12:17:05;31.20;55.30
13521;DHT22;6832;51.186;3.236;2023-07-29T12:19:33;31.20;55.10
13521;DHT22;6832;51.186;3.236;2023-07-29T12:22:00;31.30;55.20
13521;DHT22;6832;51.186;3.236;2023-07-29T12:24:29;31.30;55.00
13521;DHT22;6832;51.186;3.236;2023-07-29T12:26:58;31.20;54.60
13521;DHT22;6832;51.186;3.236;2023-07-29T12:29:26;31.30;54.60
13521;DHT22;6832;51.186;3.236;2023-07-29T12:31:58;31.20;54.60
13521;DHT22;6832;51.186;3.236;2023-07-29T12:34:26;31.20;54.30
13521;DHT22;6832;51.186;3.236;2023-07-29T12:36:54;31.20;54.30
13521;DHT22;6832;51.186;3.236;2023-07-29T12:39:23;31.20;54.20
13521;DHT22;6832;51.186;3.236;2023-07-29T12:41:52;31.10;54.10
13521;DHT22;6832;51.186;3.236;2023-07-29T12:44:22;31.00;54.00
13521;DHT22;6832;51.186;3.236;2023-07-29T12:46:49;30.90;53.80
13521;DHT22;6832;51.186;3.236;2023-07-29T12:49:16;30.80;54.00
13521;DHT22;6832;51.186;3.236;2023-07-29T12:51:44;30.80;54.00
13521;DHT22;6832;51.186;3.236;2023-07-29T12:54:11;30.70;54.00
13521;DHT22;6832;51.186;3.236;2023-07-29T12:56:37;30.60;54.10
13521;DHT22;6832;51.186;3.236;2023-07-29T12:59:05;30.50;54.10
13521;DHT22;6832;51.186;3.236;2023-07-29T13:01:33;30.40;54.00
13521;DHT22;6832;51.186;3.236;2023-07-29T13:04:00;30.30;54.00
13521;DHT22;6832;51.186;3.236;2023-07-29T13:06:27;30.30;54.00
13521;DHT22;6832;51.186;3.236;2023-07-29T13:08:54;30.20;54.10
13521;DHT22;6832;51.186;3.236;2023-07-29T13:11:21;30.10;54.20
13521;DHT22;6832;51.186;3.236;2023-07-29T13:13:47;30.00;54.30
13521;DHT22;6832;51.186;3.236;2023-07-29T13:16:14;30.00;54.40
13521;DHT22;6832;51.186;3.236;2023-07-29T13:18:43;30.00;54.60
13521;DHT22;6832;51.186;3.236;2023-07-29T13:21:10;29.90;54.60
13521;DHT22;6832;51.186;3.236;2023-07-29T13:23:37;29.80;54.60
13521;DHT22;6832;51.186;3.236;2023-07-29T13:26:04;29.80;54.80
13521;DHT22;6832;51.186;3.236;2023-07-29T13:28:30;29.80;54.80
13521;DHT22;6832;51.186;3.236;2023-07-29T13:30:57;29.80;55.00
13521;DHT22;6832;51.186;3.236;2023-07-29T13:33:24;29.80;55.00
13521;DHT22;6832;51.186;3.236;2023-07-29T13:35:52;29.80;55.00
13521;DHT22;6832;51.186;3.236;2023-07-29T13:38:19;29.70;55.00
13521;DHT22;6832;51.186;3.236;2023-07-29T13:40:46;29.70;55.60
13521;DHT22;6832;51.186;3.236;2023-07-29T13:43:16;29.70;55.10
13521;DHT22;6832;51.186;3.236;2023-07-29T13:45:43;29.70;55.10
13521;DHT22;6832;51.186;3.236;2023-07-29T13:48:10;29.60;55.00
13521;DHT22;6832;51.186;3.236;2023-07-29T13:50:37;29.60;55.00
13521;DHT22;6832;51.186;3.236;2023-07-29T13:53:05;29.60;55.00
13521;DHT22;6832;51.186;3.236;2023-07-29T13:55:32;29.60;55.60
13521;DHT22;6832;51.186;3.236;2023-07-29T13:57:59;29.60;55.00
13521;DHT22;6832;51.186;3.236;2023-07-29T14:00:26;29.50;54.90
13521;DHT22;6832;51.186;3.236;2023-07-29T14:02:52;29.50;54.80
13521;DHT22;6832;51.186;3.236;2023-07-29T14:05:20;29.50;54.80
13521;DHT22;6832;51.186;3.236;2023-07-29T14:07:47;29.40;54.90
13521;DHT22;6832;51.186;3.236;2023-07-29T14:10:16;29.40;55.60
13521;DHT22;6832;51.186;3.236;2023-07-29T14:12:42;29.30;55.00
13521;DHT22;6832;51.186;3.236;2023-07-29T14:15:10;29.30;55.90
13521;DHT22;6832;51.186;3.236;2023-07-29T14:17:37;29.30;55.20
13521;DHT22;6832;51.186;3.236;2023-07-29T14:20:04;29.20;55.30
13521;DHT22;6832;51.186;3.236;2023-07-29T14:22:31;29.20;55.50
13521;DHT22;6832;51.186;3.236;2023-07-29T14:24:58;29.30;55.60
13521;DHT22;6832;51.186;3.236;2023-07-29T14:27:26;29.20;55.60
13521;DHT22;6832;51.186;3.236;2023-07-29T14:29:53;29.20;55.60
13521;DHT22;6832;51.186;3.236;2023-07-29T14:32:20;29.20;55.70
13521;DHT22;6832;51.186;3.236;2023-07-29T14:34:47;29.20;55.80
13521;DHT22;6832;51.186;3.236;2023-07-29T14:37:14;29.20;55.80
13521;DHT22;6832;51.186;3.236;2023-07-29T14:39:41;29.20;55.80
13521;DHT22;6832;51.186;3.236;2023-07-29T14:42:08;29.30;55.90
13521;DHT22;6832;51.186;3.236;2023-07-29T14:44:36;29.30;55.70
13521;DHT22;6832;51.186;3.236;2023-07-29T14:47:03;29.30;55.70
13521;DHT22;6832;51.186;3.236;2023-07-29T14:49:30;29.30;55.80
13521;DHT22;6832;51.186;3.236;2023-07-29T14:51:57;29.30;55.80
13521;DHT22;6832;51.186;3.236;2023-07-29T14:54:24;29.30;55.90
13521;DHT22;6832;51.186;3.236;2023-07-29T14:56:51;29.30;55.90
13521;DHT22;6832;51.186;3.236;2023-07-29T14:59:18;29.40;55.80
13521;DHT22;6832;51.186;3.236;2023-07-29T15:01:46;29.40;55.70
13521;DHT22;6832;51.186;3.236;2023-07-29T15:04:13;29.40;55.60
13521;DHT22;6832;51.186;3.236;2023-07-29T15:06:40;29.40;55.70
13521;DHT22;6832;51.186;3.236;2023-07-29T15:09:07;29.50;55.80
13521;DHT22;6832;51.186;3.236;2023-07-29T15:11:33;29.50;55.80
13521;DHT22;6832;51.186;3.236;2023-07-29T15:14:00;29.50;55.70
13521;DHT22;6832;51.186;3.236;2023-07-29T15:16:29;29.50;55.60
13521;DHT22;6832;51.186;3.236;2023-07-29T15:18:58;29.50;55.60
13521;DHT22;6832;51.186;3.236;2023-07-29T15:21:25;29.50;55.50
13521;DHT22;6832;51.186;3.236;2023-07-29T15:23:52;29.50;55.60
13521;DHT22;6832;51.186;3.236;2023-07-29T15:26:18;29.50;55.50
13521;DHT22;6832;51.186;3.236;2023-07-29T15:28:46;29.50;55.40
13521;DHT22;6832;51.186;3.236;2023-07-29T15:31:13;29.50;55.40
13521;DHT22;6832;51.186;3.236;2023-07-29T15:33:40;29.50;55.30
13521;DHT22;6832;51.186;3.236;2023-07-29T15:36:08;29.60;55.40
13521;DHT22;6832;51.186;3.236;2023-07-29T15:38:35;29.50;55.30
13521;DHT22;6832;51.186;3.236;2023-07-29T15:41:02;29.50;55.30
13521;DHT22;6832;51.186;3.236;2023-07-29T15:43:29;29.50;55.30
13521;DHT22;6832;51.186;3.236;2023-07-29T15:45:56;29.50;55.30
13521;DHT22;6832;51.186;3.236;2023-07-29T15:48:23;29.50;55.30